createdAt,value
2023-02-17T00:00:45.208Z,1004.66
2023-02-17T00:01:45.188Z,1004.71
2023-02-17T00:02:45.200Z,1004.64
2023-02-17T00:03:45.160Z,1004.68
2023-02-17T00:04:45.143Z,1004.68
2023-02-17T00:05:45.118Z,1004.61
2023-02-17T00:06:45.099Z,1004.55
2023-02-17T00:07:45.145Z,1004.57
2023-02-17T00:08:45.102Z,1004.58
2023-02-17T00:09:45.067Z,1004.53
2023-02-17T00:10:45.081Z,1004.56
2023-02-17T00:11:45.051Z,1004.50
2023-02-17T00:12:45.038Z,1004.51
2023-02-17T00:13:45.095Z,1004.44
2023-02-17T00:14:45.021Z,1004.42
2023-02-17T00:15:45.325Z,1004.44
2023-02-17T00:16:45.000Z,1004.39
2023-02-17T00:17:44.988Z,1004.37
2023-02-17T00:18:44.971Z,1004.39
2023-02-17T00:19:45.000Z,1004.38
2023-02-17T00:20:44.955Z,1004.31
2023-02-17T00:21:44.959Z,1004.30
2023-02-17T00:22:44.926Z,1004.31
2023-02-17T00:23:45.642Z,1004.32
2023-02-17T00:24:44.899Z,1004.33
2023-02-17T00:25:44.923Z,1004.26
2023-02-17T00:26:44.891Z,1004.35
2023-02-17T00:27:44.858Z,1004.40
2023-02-17T00:28:44.895Z,1004.39
2023-02-17T00:29:44.846Z,1004.46
2023-02-17T00:30:44.906Z,1004.46
2023-02-17T00:31:44.951Z,1004.47
2023-02-17T00:32:44.906Z,1004.44
2023-02-17T00:33:44.892Z,1004.50
2023-02-17T00:34:44.795Z,1004.44
2023-02-17T00:35:44.772Z,1004.39
2023-02-17T00:36:44.820Z,1004.30
2023-02-17T00:37:44.803Z,1004.35
2023-02-17T00:38:44.755Z,1004.31
2023-02-17T00:39:44.791Z,1004.35
2023-02-17T00:40:44.726Z,1004.31
2023-02-17T00:41:44.760Z,1004.33
2023-02-17T00:42:44.808Z,1004.29
2023-02-17T00:43:44.776Z,1004.37
2023-02-17T00:44:44.768Z,1004.37
2023-02-17T00:45:44.710Z,1004.41
2023-02-17T00:46:44.771Z,1004.40
2023-02-17T00:47:44.659Z,1004.38
2023-02-17T00:48:44.792Z,1004.46
2023-02-17T00:49:44.622Z,1004.35
2023-02-17T00:50:44.666Z,1004.41
2023-02-17T00:51:44.610Z,1004.44
2023-02-17T00:52:44.600Z,1004.46
2023-02-17T00:53:44.572Z,1004.46
2023-02-17T00:54:44.596Z,1004.54
2023-02-17T00:55:44.591Z,1004.44
2023-02-17T00:56:44.552Z,1004.53
2023-02-17T00:57:44.581Z,1004.47
2023-02-17T00:58:44.533Z,1004.53
2023-02-17T00:59:44.661Z,1004.56
2023-02-17T01:00:44.505Z,1004.51
2023-02-17T01:01:44.537Z,1004.56
2023-02-17T01:02:44.508Z,1004.52
2023-02-17T01:03:44.454Z,1004.53
2023-02-17T01:04:44.471Z,1004.54
2023-02-17T01:05:44.461Z,1004.48
2023-02-17T01:06:44.446Z,1004.48
2023-02-17T01:07:44.436Z,1004.51
2023-02-17T01:08:44.419Z,1004.52
2023-02-17T01:09:44.423Z,1004.55
2023-02-17T01:10:44.422Z,1004.53
2023-02-17T01:11:44.372Z,1004.45
2023-02-17T01:12:44.358Z,1004.52
2023-02-17T01:13:44.343Z,1004.56
2023-02-17T01:14:44.348Z,1004.56
2023-02-17T01:15:44.324Z,1004.47
2023-02-17T01:16:44.325Z,1004.55
2023-02-17T01:17:44.301Z,1004.49
2023-02-17T01:18:44.277Z,1004.44
2023-02-17T01:19:44.275Z,1004.47
2023-02-17T01:20:44.278Z,1004.46
2023-02-17T01:21:44.306Z,1004.44
2023-02-17T01:22:44.269Z,1004.47
2023-02-17T01:23:44.224Z,1004.42
2023-02-17T01:24:44.213Z,1004.38
2023-02-17T01:25:44.224Z,1004.35
2023-02-17T01:26:44.198Z,1004.39
2023-02-17T01:27:44.195Z,1004.40
2023-02-17T01:28:44.172Z,1004.39
2023-02-17T01:29:44.157Z,1004.37
2023-02-17T01:30:44.202Z,1004.32
2023-02-17T01:31:44.156Z,1004.39
2023-02-17T01:32:44.127Z,1004.36
2023-02-17T01:33:44.158Z,1004.38
2023-02-17T01:34:44.101Z,1004.33
2023-02-17T01:35:44.086Z,1004.37
2023-02-17T01:36:44.108Z,1004.27
2023-02-17T01:37:44.057Z,1004.26
2023-02-17T01:38:44.102Z,1004.25
2023-02-17T01:39:44.084Z,1004.25
2023-02-17T01:40:44.024Z,1004.23
2023-02-17T01:41:44.017Z,1004.19
2023-02-17T01:42:44.005Z,1004.15
2023-02-17T01:43:43.986Z,1004.16
2023-02-17T01:44:44.028Z,1004.09
2023-02-17T01:45:43.962Z,1004.13
2023-02-17T01:46:44.086Z,1004.13
2023-02-17T01:47:43.941Z,1004.05
2023-02-17T01:48:43.953Z,1003.93
2023-02-17T01:49:43.919Z,1004.02
2023-02-17T01:50:43.957Z,1003.95
2023-02-17T01:51:43.892Z,1003.82
2023-02-17T01:52:43.883Z,1003.89
2023-02-17T01:53:43.868Z,1003.83
2023-02-17T01:54:43.902Z,1003.77
2023-02-17T01:55:43.855Z,1003.78
2023-02-17T01:56:43.856Z,1003.76
2023-02-17T01:57:43.824Z,1003.76
2023-02-17T01:58:43.816Z,1003.74
2023-02-17T01:59:43.794Z,1003.77
2023-02-17T02:00:43.794Z,1003.80
2023-02-17T02:01:43.872Z,1003.72
2023-02-17T02:02:43.866Z,1003.77
2023-02-17T02:03:43.756Z,1003.76
2023-02-17T02:04:43.733Z,1003.69
2023-02-17T02:05:43.734Z,1003.68
2023-02-17T02:06:43.760Z,1003.72
2023-02-17T02:07:43.706Z,1003.66
2023-02-17T02:08:43.729Z,1003.71
2023-02-17T02:09:43.700Z,1003.64
2023-02-17T02:10:43.675Z,1003.63
2023-02-17T02:11:43.675Z,1003.58
2023-02-17T02:12:43.663Z,1003.60
2023-02-17T02:13:43.636Z,1003.58
2023-02-17T02:14:43.665Z,1003.59
2023-02-17T02:15:43.630Z,1003.58
2023-02-17T02:16:43.655Z,1003.54
2023-02-17T02:17:43.618Z,1003.42
2023-02-17T02:18:43.588Z,1003.41
2023-02-17T02:19:43.599Z,1003.47
2023-02-17T02:20:43.556Z,1003.35
2023-02-17T02:21:43.567Z,1003.38
2023-02-17T02:22:43.540Z,1003.39
2023-02-17T02:23:43.547Z,1003.33
2023-02-17T02:24:43.530Z,1003.35
2023-02-17T02:25:43.551Z,1003.31
2023-02-17T02:26:43.490Z,1003.28
2023-02-17T02:27:43.486Z,1003.27
2023-02-17T02:28:43.470Z,1003.27
2023-02-17T02:29:43.476Z,1003.25
2023-02-17T02:30:43.554Z,1003.28
2023-02-17T02:31:43.475Z,1003.24
2023-02-17T02:32:43.416Z,1003.26
2023-02-17T02:33:43.436Z,1003.28
2023-02-17T02:34:43.423Z,1003.26
2023-02-17T02:35:43.415Z,1003.31
2023-02-17T02:36:43.396Z,1003.34
2023-02-17T02:37:43.376Z,1003.29
2023-02-17T02:38:43.390Z,1003.36
2023-02-17T02:39:43.364Z,1003.29
2023-02-17T02:40:43.347Z,1003.30
2023-02-17T02:41:43.338Z,1003.28
2023-02-17T02:42:43.314Z,1003.24
2023-02-17T02:43:43.316Z,1003.29
2023-02-17T02:44:43.275Z,1003.24
2023-02-17T02:45:43.294Z,1003.21
2023-02-17T02:46:43.266Z,1003.28
2023-02-17T02:47:43.278Z,1003.19
2023-02-17T02:48:43.251Z,1003.17
2023-02-17T02:49:43.228Z,1003.12
2023-02-17T02:50:43.226Z,1003.10
2023-02-17T02:51:43.206Z,1003.15
2023-02-17T02:52:43.241Z,1003.12
2023-02-17T02:53:43.266Z,1003.11
2023-02-17T02:54:43.192Z,1003.09
2023-02-17T02:55:43.184Z,1003.10
2023-02-17T02:56:43.137Z,1003.14
2023-02-17T02:57:43.171Z,1003.10
2023-02-17T02:58:43.115Z,1003.16
2023-02-17T02:59:43.169Z,1003.14
2023-02-17T03:00:43.120Z,1003.17
2023-02-17T03:01:43.098Z,1003.16
2023-02-17T03:02:43.090Z,1003.13
2023-02-17T03:03:43.078Z,1003.21
2023-02-17T03:04:43.059Z,1003.15
2023-02-17T03:05:43.097Z,1003.19
2023-02-17T03:06:43.016Z,1003.24
2023-02-17T03:07:43.013Z,1003.21
2023-02-17T03:08:43.022Z,1003.19
2023-02-17T03:09:42.991Z,1003.10
2023-02-17T03:10:43.053Z,1003.22
2023-02-17T03:11:42.996Z,1003.19
2023-02-17T03:12:42.964Z,1003.16
2023-02-17T03:13:42.960Z,1003.17
2023-02-17T03:14:42.947Z,1003.11
2023-02-17T03:15:42.961Z,1003.10
2023-02-17T03:16:42.938Z,1003.11
2023-02-17T03:17:42.940Z,1003.14
2023-02-17T03:18:42.906Z,1003.18
2023-02-17T03:19:42.896Z,1003.13
2023-02-17T03:20:42.868Z,1003.17
2023-02-17T03:21:42.856Z,1003.16
2023-02-17T03:22:42.880Z,1003.18
2023-02-17T03:23:42.818Z,1003.15
2023-02-17T03:24:42.819Z,1003.18
2023-02-17T03:25:42.832Z,1003.19
2023-02-17T03:26:42.791Z,1003.18
2023-02-17T03:27:42.779Z,1003.08
2023-02-17T03:28:42.823Z,1003.16
2023-02-17T03:29:42.761Z,1003.12
2023-02-17T03:30:42.751Z,1003.09
2023-02-17T03:31:42.773Z,1003.09
2023-02-17T03:32:42.774Z,1003.14
2023-02-17T03:33:42.715Z,1003.13
2023-02-17T03:34:42.793Z,1003.09
2023-02-17T03:35:42.732Z,1003.09
2023-02-17T03:36:42.711Z,1003.14
2023-02-17T03:37:42.668Z,1003.10
2023-02-17T03:38:42.651Z,1003.17
2023-02-17T03:39:42.677Z,1003.10
2023-02-17T03:40:42.665Z,1003.08
2023-02-17T03:41:42.639Z,1003.11
2023-02-17T03:42:42.604Z,1003.10
2023-02-17T03:43:42.590Z,1003.14
2023-02-17T03:44:42.593Z,1003.10
2023-02-17T03:45:42.639Z,1003.13
2023-02-17T03:46:42.604Z,1003.07
2023-02-17T03:47:42.575Z,1003.06
2023-02-17T03:48:42.557Z,1003.04
2023-02-17T03:49:42.544Z,1003.05
2023-02-17T03:50:42.510Z,1003.05
2023-02-17T03:51:42.530Z,1003.02
2023-02-17T03:52:42.524Z,1003.03
2023-02-17T03:53:42.472Z,1003.06
2023-02-17T03:54:42.482Z,1003.07
2023-02-17T03:55:42.455Z,1003.09
2023-02-17T03:56:42.442Z,1003.07
2023-02-17T03:57:42.481Z,1003.07
2023-02-17T03:58:42.434Z,1003.06
2023-02-17T03:59:42.414Z,1003.11
2023-02-17T04:00:42.413Z,1003.06
2023-02-17T04:01:42.445Z,1003.06
2023-02-17T04:02:44.114Z,1003.13
2023-02-17T04:03:42.430Z,1003.16
2023-02-17T04:04:42.343Z,1003.17
2023-02-17T04:05:42.334Z,1003.13
2023-02-17T04:06:42.325Z,1003.14
2023-02-17T04:07:42.325Z,1003.16
2023-02-17T04:08:42.300Z,1003.12
2023-02-17T04:09:42.335Z,1003.09
2023-02-17T04:10:42.277Z,1003.12
2023-02-17T04:11:42.274Z,1003.10
2023-02-17T04:12:42.263Z,1003.07
2023-02-17T04:13:42.281Z,1003.17
2023-02-17T04:14:42.232Z,1003.19
2023-02-17T04:15:42.699Z,1003.14
2023-02-17T04:16:42.212Z,1003.14
2023-02-17T04:17:42.204Z,1003.19
2023-02-17T04:18:42.225Z,1003.15
2023-02-17T04:19:42.173Z,1003.10
2023-02-17T04:20:42.174Z,1003.11
2023-02-17T04:21:42.207Z,1003.17
2023-02-17T04:22:42.200Z,1003.14
2023-02-17T04:23:42.125Z,1003.17
2023-02-17T04:24:42.125Z,1003.13
2023-02-17T04:25:42.127Z,1003.07
2023-02-17T04:26:42.113Z,1003.06
2023-02-17T04:27:42.105Z,1003.10
2023-02-17T04:28:42.104Z,1003.11
2023-02-17T04:29:42.065Z,1003.11
2023-02-17T04:30:42.073Z,1003.09
2023-02-17T04:31:42.132Z,1003.10
2023-02-17T04:32:42.067Z,1003.10
2023-02-17T04:33:42.046Z,1003.13
2023-02-17T04:34:42.043Z,1003.21
2023-02-17T04:35:41.997Z,1003.16
2023-02-17T04:36:44.073Z,1003.10
2023-02-17T04:37:42.011Z,1003.03
2023-02-17T04:38:41.988Z,1003.04
2023-02-17T04:39:41.967Z,1003.12
2023-02-17T04:40:41.989Z,1003.11
2023-02-17T04:41:41.923Z,1003.10
2023-02-17T04:42:41.920Z,1003.13
2023-02-17T04:43:41.904Z,1003.14
2023-02-17T04:44:41.914Z,1003.08
2023-02-17T04:45:41.876Z,1003.14
2023-02-17T04:46:41.875Z,1003.10
2023-02-17T04:47:41.846Z,1003.05
2023-02-17T04:48:41.870Z,1003.04
2023-02-17T04:49:41.885Z,1003.06
2023-02-17T04:50:41.836Z,1003.00
2023-02-17T04:51:41.819Z,1003.03
2023-02-17T04:52:41.807Z,1003.01
2023-02-17T04:53:41.790Z,1003.02
2023-02-17T04:54:41.766Z,1003.01
2023-02-17T04:55:41.801Z,1002.99
2023-02-17T04:56:41.765Z,1003.07
2023-02-17T04:57:41.736Z,1003.06
2023-02-17T04:58:41.727Z,1003.11
2023-02-17T04:59:41.721Z,1003.06
2023-02-17T05:00:41.742Z,1003.11
2023-02-17T05:01:41.828Z,1003.02
2023-02-17T05:02:41.690Z,1002.98
2023-02-17T05:03:41.669Z,1002.95
2023-02-17T05:04:41.753Z,1003.10
2023-02-17T05:05:41.664Z,1003.03
2023-02-17T05:06:41.670Z,1003.03
2023-02-17T05:07:41.620Z,1003.04
2023-02-17T05:08:41.617Z,1003.03
2023-02-17T05:09:41.643Z,1003.03
2023-02-17T05:10:41.593Z,1003.04
2023-02-17T05:11:41.750Z,1002.91
2023-02-17T05:12:41.568Z,1002.96
2023-02-17T05:13:41.549Z,1002.91
2023-02-17T05:14:41.548Z,1002.97
2023-02-17T05:15:41.595Z,1002.95
2023-02-17T05:16:41.528Z,1003.02
2023-02-17T05:17:41.559Z,1002.96
2023-02-17T05:18:41.499Z,1003.01
2023-02-17T05:19:41.491Z,1003.00
2023-02-17T05:20:41.513Z,1003.05
2023-02-17T05:21:41.479Z,1003.01
2023-02-17T05:22:41.470Z,1002.97
2023-02-17T05:23:41.492Z,1003.05
2023-02-17T05:24:41.437Z,1003.03
2023-02-17T05:25:41.411Z,1003.16
2023-02-17T05:26:41.422Z,1003.08
2023-02-17T05:27:41.380Z,1003.03
2023-02-17T05:28:41.481Z,1003.06
2023-02-17T05:29:41.376Z,1003.10
2023-02-17T05:30:41.403Z,1003.17
2023-02-17T05:31:41.482Z,1003.19
2023-02-17T05:32:41.360Z,1003.27
2023-02-17T05:33:41.363Z,1003.21
2023-02-17T05:34:41.331Z,1003.26
2023-02-17T05:35:41.303Z,1003.23
2023-02-17T05:36:41.292Z,1003.16
2023-02-17T05:37:41.305Z,1003.19
2023-02-17T05:38:41.275Z,1003.24
2023-02-17T05:39:41.254Z,1003.20
2023-02-17T05:40:41.267Z,1003.24
2023-02-17T05:41:41.242Z,1003.12
2023-02-17T05:42:41.224Z,1003.20
2023-02-17T05:43:41.205Z,1003.12
2023-02-17T05:44:41.212Z,1003.11
2023-02-17T05:45:41.208Z,1003.08
2023-02-17T05:46:41.242Z,1003.09
2023-02-17T05:47:41.175Z,1003.09
2023-02-17T05:48:41.157Z,1003.01
2023-02-17T05:49:41.150Z,1002.96
2023-02-17T05:50:41.128Z,1002.98
2023-02-17T05:51:41.285Z,1002.99
2023-02-17T05:52:41.151Z,1002.99
2023-02-17T05:53:41.087Z,1003.05
2023-02-17T05:54:41.082Z,1003.10
2023-02-17T05:55:41.071Z,1003.10
2023-02-17T05:56:41.061Z,1003.04
2023-02-17T05:57:41.227Z,1003.09
2023-02-17T05:58:41.093Z,1002.98
2023-02-17T05:59:41.025Z,1002.86
2023-02-17T06:00:41.038Z,1002.95
2023-02-17T06:01:41.016Z,1002.92
2023-02-17T06:02:41.064Z,1002.91
2023-02-17T06:03:41.003Z,1003.00
2023-02-17T06:04:41.049Z,1002.95
2023-02-17T06:05:41.017Z,1002.97
2023-02-17T06:06:40.941Z,1003.04
2023-02-17T06:07:40.991Z,1002.99
2023-02-17T06:08:40.935Z,1003.01
2023-02-17T06:09:40.940Z,1002.97
2023-02-17T06:10:40.919Z,1002.92
2023-02-17T06:11:40.907Z,1002.95
2023-02-17T06:12:40.972Z,1002.93
2023-02-17T06:13:40.871Z,1002.88
2023-02-17T06:14:40.878Z,1002.88
2023-02-17T06:15:40.864Z,1002.85
2023-02-17T06:16:40.851Z,1002.83
2023-02-17T06:17:40.911Z,1002.83
2023-02-17T06:18:40.871Z,1002.85
2023-02-17T06:19:40.811Z,1002.86
2023-02-17T06:20:40.813Z,1002.97
2023-02-17T06:21:40.788Z,1002.95
2023-02-17T06:22:40.765Z,1003.01
2023-02-17T06:23:40.769Z,1002.88
2023-02-17T06:24:40.749Z,1002.93
2023-02-17T06:25:40.727Z,1002.90
2023-02-17T06:26:40.767Z,1002.94
2023-02-17T06:27:40.698Z,1002.95
2023-02-17T06:28:40.707Z,1002.89
2023-02-17T06:29:40.681Z,1002.95
2023-02-17T06:30:40.786Z,1002.99
2023-02-17T06:31:40.720Z,1002.96
2023-02-17T06:32:40.660Z,1002.90
2023-02-17T06:33:40.632Z,1002.95
2023-02-17T06:34:40.613Z,1002.98
2023-02-17T06:35:40.606Z,1003.02
2023-02-17T06:36:40.623Z,1003.03
2023-02-17T06:37:40.635Z,1003.05
2023-02-17T06:38:40.586Z,1003.14
2023-02-17T06:39:40.574Z,1003.13
2023-02-17T06:40:40.567Z,1003.12
2023-02-17T06:41:40.555Z,1003.21
2023-02-17T06:42:40.524Z,1003.05
2023-02-17T06:43:40.676Z,1003.05
2023-02-17T06:44:40.537Z,1003.01
2023-02-17T06:45:40.506Z,1003.06
2023-02-17T06:46:40.483Z,1003.01
2023-02-17T06:47:40.474Z,1002.95
2023-02-17T06:48:40.460Z,1003.00
2023-02-17T06:49:40.843Z,1003.08
2023-02-17T06:50:40.440Z,1003.07
2023-02-17T06:51:40.435Z,1003.12
2023-02-17T06:52:40.414Z,1003.14
2023-02-17T06:53:40.395Z,1003.10
2023-02-17T06:54:40.406Z,1003.15
2023-02-17T06:55:40.434Z,1003.15
2023-02-17T06:56:40.365Z,1003.12
2023-02-17T06:57:40.355Z,1003.07
2023-02-17T06:58:40.344Z,1003.06
2023-02-17T06:59:40.336Z,1003.18
2023-02-17T07:00:40.316Z,1003.13
2023-02-17T07:01:40.353Z,1003.11
2023-02-17T07:02:40.562Z,1003.10
2023-02-17T07:03:40.280Z,1003.19
2023-02-17T07:04:40.298Z,1003.20
2023-02-17T07:05:40.278Z,1003.14
2023-02-17T07:06:40.332Z,1003.08
2023-02-17T07:07:40.270Z,1003.13
2023-02-17T07:08:40.235Z,1003.11
2023-02-17T07:09:40.221Z,1003.14
2023-02-17T07:10:40.225Z,1003.10
2023-02-17T07:11:40.268Z,1003.09
2023-02-17T07:12:40.202Z,1003.20
2023-02-17T07:13:40.201Z,1003.18
2023-02-17T07:14:40.184Z,1003.16
2023-02-17T07:15:40.291Z,1003.15
2023-02-17T07:16:40.215Z,1003.15
2023-02-17T07:17:40.142Z,1003.11
2023-02-17T07:18:40.153Z,1003.22
2023-02-17T07:19:40.114Z,1003.18
2023-02-17T07:20:40.101Z,1003.13
2023-02-17T07:21:40.094Z,1003.08
2023-02-17T07:22:40.073Z,1003.15
2023-02-17T07:23:40.061Z,1003.12
2023-02-17T07:24:40.106Z,1002.99
2023-02-17T07:25:40.030Z,1003.08
2023-02-17T07:26:40.015Z,1003.10
2023-02-17T07:27:40.028Z,1003.03
2023-02-17T07:28:40.011Z,1003.05
2023-02-17T07:29:40.002Z,1003.06
2023-02-17T07:30:40.005Z,1003.03
2023-02-17T07:31:39.969Z,1003.01
2023-02-17T07:32:39.960Z,1003.02
2023-02-17T07:33:39.944Z,1003.04
2023-02-17T07:34:39.929Z,1003.07
2023-02-17T07:35:39.942Z,1003.09
2023-02-17T07:36:39.961Z,1003.04
2023-02-17T07:37:39.890Z,1003.09
2023-02-17T07:38:39.905Z,1003.08
2023-02-17T07:39:39.883Z,1003.13
2023-02-17T07:40:39.891Z,1003.09
2023-02-17T07:41:39.880Z,1003.12
2023-02-17T07:42:39.839Z,1003.14
2023-02-17T07:43:39.824Z,1003.05
2023-02-17T07:44:39.810Z,1003.13
2023-02-17T07:45:39.921Z,1003.10
2023-02-17T07:46:39.806Z,1003.15
2023-02-17T07:47:39.910Z,1003.06
2023-02-17T07:48:39.787Z,1003.07
2023-02-17T07:49:39.743Z,1003.11
2023-02-17T07:50:39.745Z,1003.07
2023-02-17T07:51:39.751Z,1003.02
2023-02-17T07:52:39.735Z,1003.00
2023-02-17T07:53:39.719Z,1003.04
2023-02-17T07:54:39.746Z,1002.98
2023-02-17T07:55:39.681Z,1003.03
2023-02-17T07:56:39.668Z,1002.94
2023-02-17T07:57:39.671Z,1002.93
2023-02-17T07:58:39.665Z,1002.88
2023-02-17T07:59:39.640Z,1003.00
2023-02-17T08:00:39.616Z,1002.99
2023-02-17T08:01:39.622Z,1002.97
2023-02-17T08:02:39.596Z,1002.99
2023-02-17T08:03:39.668Z,1003.01
2023-02-17T08:04:39.607Z,1002.88
2023-02-17T08:05:39.564Z,1002.94
2023-02-17T08:06:39.545Z,1002.94
2023-02-17T08:07:39.873Z,1002.97
2023-02-17T08:08:39.531Z,1002.96
2023-02-17T08:09:39.539Z,1003.05
2023-02-17T08:10:39.515Z,1002.99
2023-02-17T08:11:39.501Z,1003.00
2023-02-17T08:12:39.508Z,1002.98
2023-02-17T08:13:39.464Z,1003.01
2023-02-17T08:14:39.477Z,1002.98
2023-02-17T08:15:39.466Z,1003.01
2023-02-17T08:16:39.469Z,1003.01
2023-02-17T08:17:39.427Z,1003.03
2023-02-17T08:18:39.420Z,1003.00
2023-02-17T08:19:48.047Z,1002.93
2023-02-17T08:20:40.439Z,1002.93
2023-02-17T08:21:39.381Z,1003.02
2023-02-17T08:22:39.380Z,1002.93
2023-02-17T08:23:39.359Z,1002.85
2023-02-17T08:24:39.374Z,1002.94
2023-02-17T08:25:39.334Z,1002.94
2023-02-17T08:26:39.361Z,1002.98
2023-02-17T08:27:39.304Z,1003.05
2023-02-17T08:28:39.300Z,1003.10
2023-02-17T08:29:39.336Z,1003.06
2023-02-17T08:30:39.369Z,1003.09
2023-02-17T08:31:39.342Z,1003.07
2023-02-17T08:32:39.288Z,1002.97
2023-02-17T08:33:39.254Z,1003.03
2023-02-17T08:34:39.246Z,1002.89
2023-02-17T08:35:39.292Z,1002.89
2023-02-17T08:36:39.240Z,1002.90
2023-02-17T08:37:39.260Z,1002.95
2023-02-17T08:38:39.182Z,1002.98
2023-02-17T08:39:39.161Z,1003.01
2023-02-17T08:40:39.205Z,1003.06
2023-02-17T08:41:39.138Z,1003.03
2023-02-17T08:42:39.156Z,1003.02
2023-02-17T08:43:39.200Z,1002.94
2023-02-17T08:44:39.107Z,1002.97
2023-02-17T08:45:39.146Z,1002.95
2023-02-17T08:46:39.200Z,1002.92
2023-02-17T08:47:39.078Z,1003.00
2023-02-17T08:48:39.064Z,1002.97
2023-02-17T08:49:39.073Z,1002.96
2023-02-17T08:50:39.064Z,1003.04
2023-02-17T08:51:39.054Z,1003.00
2023-02-17T08:52:39.026Z,1003.04
2023-02-17T08:53:39.034Z,1003.02
2023-02-17T08:54:39.022Z,1003.10
2023-02-17T08:55:48.982Z,1003.05
2023-02-17T08:56:40.009Z,1003.07
2023-02-17T08:57:39.050Z,1003.02
2023-02-17T08:58:39.017Z,1002.97
2023-02-17T08:59:38.951Z,1002.95
2023-02-17T09:00:39.006Z,1002.97
2023-02-17T09:01:39.016Z,1002.97
2023-02-17T09:02:38.947Z,1003.04
2023-02-17T09:03:38.924Z,1003.07
2023-02-17T09:04:38.971Z,1003.08
2023-02-17T09:05:39.015Z,1003.13
2023-02-17T09:06:38.931Z,1003.07
2023-02-17T09:07:38.897Z,1003.09
2023-02-17T09:08:38.893Z,1003.17
2023-02-17T09:09:38.820Z,1003.08
2023-02-17T09:10:38.907Z,1003.05
2023-02-17T09:11:38.856Z,1003.04
2023-02-17T09:12:39.150Z,1003.04
2023-02-17T09:13:38.769Z,1003.00
2023-02-17T09:14:38.805Z,1002.96
2023-02-17T09:15:40.685Z,1003.04
2023-02-17T09:16:41.050Z,1003.11
2023-02-17T09:17:38.771Z,1003.03
2023-02-17T09:18:38.722Z,1002.98
2023-02-17T09:19:38.772Z,1003.07
2023-02-17T09:20:38.681Z,1003.09
2023-02-17T09:21:38.679Z,1003.12
2023-02-17T09:22:38.789Z,1003.09
2023-02-17T09:23:38.681Z,1003.05
2023-02-17T09:24:38.837Z,1002.97
2023-02-17T09:25:38.670Z,1002.92
2023-02-17T09:26:38.623Z,1003.01
2023-02-17T09:27:38.625Z,1003.05
2023-02-17T09:28:38.629Z,1003.07
2023-02-17T09:29:38.597Z,1003.16
2023-02-17T09:30:38.636Z,1003.04
2023-02-17T09:31:38.663Z,1002.98
2023-02-17T09:32:38.562Z,1003.02
2023-02-17T09:33:38.533Z,1003.04
2023-02-17T09:34:38.603Z,1002.98
2023-02-17T09:35:38.520Z,1003.05
2023-02-17T09:36:38.500Z,1003.04
2023-02-17T09:37:38.562Z,1003.03
2023-02-17T09:38:38.521Z,1003.08
2023-02-17T09:39:38.491Z,1003.10
2023-02-17T09:40:38.492Z,1003.03
2023-02-17T09:41:38.515Z,1003.06
2023-02-17T09:42:38.436Z,1003.08
2023-02-17T09:43:38.437Z,1003.04
2023-02-17T09:44:38.406Z,1003.08
2023-02-17T09:45:38.423Z,1003.00
2023-02-17T09:46:38.493Z,1003.04
2023-02-17T09:47:38.412Z,1003.06
2023-02-17T09:48:38.373Z,1003.10
2023-02-17T09:49:38.433Z,1003.06
2023-02-17T09:50:38.405Z,1003.10
2023-02-17T09:51:38.340Z,1003.07
2023-02-17T09:52:38.413Z,1003.09
2023-02-17T09:53:38.307Z,1003.08
2023-02-17T09:54:38.290Z,1003.10
2023-02-17T09:55:38.309Z,1003.13
2023-02-17T09:56:38.279Z,1003.12
2023-02-17T09:57:38.294Z,1003.09
2023-02-17T09:58:38.371Z,1003.14
2023-02-17T09:59:38.237Z,1003.08
2023-02-17T10:00:38.308Z,1003.17
2023-02-17T10:01:38.221Z,1003.12
2023-02-17T10:02:38.236Z,1003.13
2023-02-17T10:03:38.349Z,1003.17
2023-02-17T10:04:38.267Z,1003.15
2023-02-17T10:05:38.253Z,1003.17
2023-02-17T10:06:38.158Z,1003.21
2023-02-17T10:07:38.171Z,1003.15
2023-02-17T10:08:38.150Z,1003.31
2023-02-17T10:09:38.151Z,1003.13
2023-02-17T10:10:38.195Z,1003.20
2023-02-17T10:11:38.178Z,1003.15
2023-02-17T10:12:38.126Z,1003.14
2023-02-17T10:13:38.076Z,1003.12
2023-02-17T10:14:38.089Z,1003.15
2023-02-17T10:15:38.195Z,1003.13
2023-02-17T10:16:38.165Z,1003.12
2023-02-17T10:17:38.033Z,1003.19
2023-02-17T10:18:38.037Z,1003.23
2023-02-17T10:19:38.077Z,1003.25
2023-02-17T10:20:38.064Z,1003.18
2023-02-17T10:21:38.023Z,1003.09
2023-02-17T10:22:38.000Z,1003.20
2023-02-17T10:23:38.042Z,1003.25
2023-02-17T10:24:38.014Z,1003.14
2023-02-17T10:25:38.014Z,1003.14
2023-02-17T10:26:37.970Z,1003.21
2023-02-17T10:27:37.946Z,1003.21
2023-02-17T10:28:37.931Z,1003.16
2023-02-17T10:29:37.902Z,1003.14
2023-02-17T10:30:37.914Z,1003.21
2023-02-17T10:31:37.996Z,1003.10
2023-02-17T10:32:38.005Z,1003.12
2023-02-17T10:33:37.850Z,1003.13
2023-02-17T10:34:37.844Z,1003.23
2023-02-17T10:35:37.897Z,1003.19
2023-02-17T10:36:37.836Z,1003.24
2023-02-17T10:37:38.797Z,1003.16
2023-02-17T10:38:37.782Z,1003.14
2023-02-17T10:39:37.783Z,1003.20
2023-02-17T10:40:37.798Z,1003.19
2023-02-17T10:41:37.747Z,1003.13
2023-02-17T10:42:37.743Z,1003.13
2023-02-17T10:43:37.754Z,1003.14
2023-02-17T10:44:37.788Z,1003.18
2023-02-17T10:45:37.714Z,1003.14
2023-02-17T10:46:37.718Z,1003.18
2023-02-17T10:47:37.691Z,1003.12
2023-02-17T10:48:37.668Z,1003.13
2023-02-17T10:49:37.693Z,1003.10
2023-02-17T10:50:37.667Z,1003.07
2023-02-17T10:51:37.648Z,1003.04
2023-02-17T10:52:37.717Z,1003.06
2023-02-17T10:53:37.606Z,1003.11
2023-02-17T10:54:37.597Z,1003.07
2023-02-17T10:55:37.608Z,1003.07
2023-02-17T10:56:37.574Z,1003.03
2023-02-17T10:57:37.543Z,1002.99
2023-02-17T10:58:37.570Z,1003.06
2023-02-17T10:59:37.535Z,1003.10
2023-02-17T11:00:37.561Z,1003.11
2023-02-17T11:01:37.586Z,1003.09
2023-02-17T11:02:37.557Z,1003.13
2023-02-17T11:03:37.521Z,1003.00
2023-02-17T11:04:37.520Z,1003.05
2023-02-17T11:05:37.477Z,1003.03
2023-02-17T11:06:37.471Z,1002.97
2023-02-17T11:07:37.450Z,1002.94
2023-02-17T11:08:37.432Z,1002.94
2023-02-17T11:09:37.418Z,1002.86
2023-02-17T11:10:37.424Z,1002.91
2023-02-17T11:11:37.413Z,1002.94
2023-02-17T11:12:37.421Z,1002.98
2023-02-17T11:13:37.398Z,1002.99
2023-02-17T11:14:37.373Z,1003.02
2023-02-17T11:15:37.361Z,1002.95
2023-02-17T11:16:37.405Z,1002.96
2023-02-17T11:17:37.326Z,1002.91
2023-02-17T11:18:37.345Z,1002.90
2023-02-17T11:19:37.301Z,1002.84
2023-02-17T11:20:37.324Z,1002.85
2023-02-17T11:21:37.344Z,1002.94
2023-02-17T11:22:37.274Z,1002.83
2023-02-17T11:23:37.370Z,1002.78
2023-02-17T11:24:37.243Z,1002.83
2023-02-17T11:25:37.250Z,1002.84
2023-02-17T11:26:37.269Z,1002.84
2023-02-17T11:27:37.279Z,1002.86
2023-02-17T11:28:37.221Z,1002.76
2023-02-17T11:29:37.206Z,1002.74
2023-02-17T11:30:37.186Z,1002.77
2023-02-17T11:31:37.294Z,1002.75
2023-02-17T11:32:37.167Z,1002.79
2023-02-17T11:33:37.178Z,1002.69
2023-02-17T11:34:37.144Z,1002.68
2023-02-17T11:35:37.137Z,1002.78
2023-02-17T11:36:37.117Z,1002.76
2023-02-17T11:37:37.099Z,1002.73
2023-02-17T11:38:37.088Z,1002.71
2023-02-17T11:39:37.068Z,1002.74
2023-02-17T11:40:37.082Z,1002.66
2023-02-17T11:41:37.086Z,1002.60
2023-02-17T11:42:37.173Z,1002.57
2023-02-17T11:43:37.033Z,1002.60
2023-02-17T11:44:37.015Z,1002.56
2023-02-17T11:45:37.025Z,1002.63
2023-02-17T11:46:37.012Z,1002.55
2023-02-17T11:47:37.043Z,1002.50
2023-02-17T11:48:36.979Z,1002.56
2023-02-17T11:49:36.998Z,1002.58
2023-02-17T11:50:41.771Z,1002.56
2023-02-17T11:51:37.968Z,1002.59
2023-02-17T11:52:36.944Z,1002.55
2023-02-17T11:53:36.913Z,1002.53
2023-02-17T11:54:36.897Z,1002.60
2023-02-17T11:55:36.885Z,1002.49
2023-02-17T11:56:36.881Z,1002.50
2023-02-17T11:57:36.860Z,1002.49
2023-02-17T11:58:36.879Z,1002.39
2023-02-17T11:59:36.840Z,1002.33
2023-02-17T12:00:36.843Z,1002.38
2023-02-17T12:01:36.862Z,1002.34
2023-02-17T12:02:36.805Z,1002.36
2023-02-17T12:03:37.021Z,1002.40
2023-02-17T12:04:36.814Z,1002.34
2023-02-17T12:05:36.843Z,1002.30